Time;durP1;ratioP1;P1;durP2;ratioP2;P2;SDS_P1;SDS_P2;PMS_P1;PMS_P2;Temp;Humidity;BMP_temperature;BMP_pressure;BME280_temperature;BME280_humidity;BME280_pressure;Samples;Min_cycle;Max_cycle;Signal;HPM_P1;HPM_P2
2024/01/01 00:01:16;;;;;;;;;;;;;;;;;;5067637;28;19937;-75
2024/01/01 00:03:44;;;;;;;;;;;;;;;;;;5070188;28;19931;-74
2024/01/01 00:06:11;;;;;;;;;;;;;;;;;;5067142;28;20007;-74
2024/01/01 00:08:38;;;;;;;;;;;;;;;;;;5068716;28;20383;-74
2024/01/01 00:11:05;;;;;;;;;;;;;;;;;;5070334;28;19936;-74
2024/01/01 00:13:32;;;;;;;;;;;;;;;;;;5063332;28;19931;-73
2024/01/01 00:15:59;;;;;;;;;;;;;;;;;;5068227;28;19975;-75
2024/01/01 00:18:26;;;;;;;;;;;;;;;;;;5067850;28;19925;-77
2024/01/01 00:20:54;;;;;;;;;;;;;;;;;;5067954;28;19925;-77
2024/01/01 00:23:21;;;;;;;;;;;;;;;;;;5068601;28;20269;-77
2024/01/01 00:25:48;;;;;;;;;;;;;;;;;;5071427;28;20036;-79
2024/01/01 00:28:15;;;;;;;;;;;;;;;;;;5072008;28;19925;-71
2024/01/01 00:30:42;;;;;;;;;;;;;;;;;;5071509;28;19931;-74
2024/01/01 00:33:09;;;;;;;;;;;;;;;;;;5072142;28;20436;-73
2024/01/01 00:35:37;;;;;;;;;;;;;;;;;;5071860;28;19985;-73
2024/01/01 00:38:04;;;;;;;;;;;;;;;;;;5063583;28;19925;-73
2024/01/01 00:40:31;;;;;;;;;;;;;;;;;;5063882;28;19990;-73
2024/01/01 00:42:58;;;;;;;;;;;;;;;;;;5072062;28;20496;-73
2024/01/01 00:45:25;;;;;;;;;;;;;;;;;;5067900;28;19932;-73
2024/01/01 00:47:52;;;;;;;;;;;;;;;;;;5072657;28;20406;-73
2024/01/01 00:50:19;;;;;;;;;;;;;;;;;;5065829;28;20380;-73
2024/01/01 00:52:46;;;;;;;;;;;;;;;;;;5058939;28;19924;-72
2024/01/01 00:55:13;;;;;;;;;;;;;;;;;;5063356;28;20291;-74
2024/01/01 00:57:41;;;;;;;;;;;;;;;;;;5071741;28;19928;-75
2024/01/01 01:00:08;;;;;;;;;;;;;;;;;;5064671;28;19924;-73
2024/01/01 01:02:35;;;;;;;;;;;;;;;;;;5064480;28;19929;-73
2024/01/01 01:05:02;;;;;;;;;;;;;;;;;;5063160;28;19924;-71
2024/01/01 01:07:30;;;;;;;;;;;;;;;;;;5070847;28;20291;-72
2024/01/01 01:09:57;;;;;;;;;;;;;;;;;;5060477;28;20375;-72
2024/01/01 01:12:24;;;;;;;;;;;;;;;;;;5065615;28;19924;-72
2024/01/01 01:14:51;;;;;;;;;;;;;;;;;;5065168;28;19928;-71
2024/01/01 01:17:18;;;;;;;;;;;;;;;;;;5064963;28;19928;-72
2024/01/01 01:19:45;;;;;;;;;;;;;;;;;;5067788;28;19978;-72
2024/01/01 01:22:12;;;;;;;;;;;;;;;;;;5068249;28;19930;-72
2024/01/01 01:24:39;;;;;;;;;;;;;;;;;;5065892;28;20280;-70
2024/01/01 01:27:06;;;;;;;;;;;;;;;;;;5068853;28;19975;-70
2024/01/01 01:29:33;;;;;;;;;;;;;;;;;;5068843;28;19924;-70
2024/01/01 01:32:01;;;;;;;;;;;;;;;;;;5070773;28;19932;-71
2024/01/01 01:34:28;;;;;;;;;;;;;;;;;;5064767;28;19928;-71
2024/01/01 01:36:55;;;;;;;;;;;;;;;;;;5069607;28;19978;-70
2024/01/01 01:39:22;;;;;;;;;;;;;;;;;;5070811;28;19925;-71
2024/01/01 01:41:49;;;;;;;;;;;;;;;;;;5063906;28;19928;-70
2024/01/01 01:44:16;;;;;;;;;;;;;;;;;;5062466;28;19924;-72
2024/01/01 01:46:43;;;;;;;;;;;;;;;;;;5066495;28;20383;-71
2024/01/01 01:49:10;;;;;;;;;;;;;;;;;;5068708;28;20559;-71
2024/01/01 01:51:37;;;;;;;;;;;;;;;;;;5069594;28;19924;-71
2024/01/01 01:54:04;;;;;;;;;;;;;;;;;;5069933;28;19925;-71
2024/01/01 01:56:31;;;;;;;;;;;;;;;;;;5069876;28;20375;-71
2024/01/01 01:58:58;;;;;;;;;;;;;;;;;;5069701;28;19924;-71
2024/01/01 02:01:25;;;;;;;;;;;;;;;;;;5062448;28;20010;-71
2024/01/01 02:03:52;;;;;;;;;;;;;;;;;;5073231;28;20323;-72
2024/01/01 02:06:19;;;;;;;;;;;;;;;;;;5060713;28;20380;-71
2024/01/01 02:08:46;;;;;;;;;;;;;;;;;;5071981;28;20333;-71
2024/01/01 02:11:14;;;;;;;;;;;;;;;;;;5071705;28;19970;-72
2024/01/01 02:13:41;;;;;;;;;;;;;;;;;;5072949;28;19975;-72
2024/01/01 02:16:08;;;;;;;;;;;;;;;;;;5066615;28;19924;-72
2024/01/01 02:18:35;;;;;;;;;;;;;;;;;;5073344;28;20379;-72
2024/01/01 02:21:02;;;;;;;;;;;;;;;;;;5072237;28;20015;-72
2024/01/01 02:23:29;;;;;;;;;;;;;;;;;;5072143;28;19924;-73
2024/01/01 02:25:57;;;;;;;;;;;;;;;;;;5073049;28;19924;-72
2024/01/01 02:28:24;;;;;;;;;;;;;;;;;;5073503;28;19931;-72
2024/01/01 02:30:51;;;;;;;;;;;;;;;;;;5074318;28;20378;-72
2024/01/01 02:33:18;;;;;;;;;;;;;;;;;;5070780;28;20444;-73
2024/01/01 02:35:45;;;;;;;;;;;;;;;;;;5072306;28;20006;-72
2024/01/01 02:38:13;;;;;;;;;;;;;;;;;;5072349;28;20399;-72
2024/01/01 02:40:40;;;;;;;;;;;;;;;;;;5073861;28;20326;-72
2024/01/01 02:43:07;;;;;;;;;;;;;;;;;;5073345;28;20517;-72
2024/01/01 02:45:34;;;;;;;;;;;;;;;;;;5069752;28;19928;-72
2024/01/01 02:48:01;;;;;;;;;;;;;;;;;;5073576;28;19929;-72
2024/01/01 02:50:29;;;;;;;;;;;;;;;;;;5073603;28;19943;-72
2024/01/01 02:52:56;;;;;;;;;;;;;;;;;;5071076;28;19928;-72
2024/01/01 02:55:23;;;;;;;;;;;;;;;;;;5071452;28;20371;-72
2024/01/01 02:57:50;;;;;;;;;;;;;;;;;;5074021;28;20426;-72
2024/01/01 03:00:17;;;;;;;;;;;;;;;;;;5065007;28;20388;-72
2024/01/01 03:02:44;;;;;;;;;;;;;;;;;;5070279;28;19932;-72
2024/01/01 03:05:12;;;;;;;;;;;;;;;;;;5070608;28;19928;-73
2024/01/01 03:07:39;;;;;;;;;;;;;;;;;;5073943;28;20370;-72
2024/01/01 03:10:06;;;;;;;;;;;;;;;;;;5069200;28;20382;-72
2024/01/01 03:12:33;;;;;;;;;;;;;;;;;;5070423;28;19924;-72
2024/01/01 03:15:00;;;;;;;;;;;;;;;;;;5062654;28;19924;-72
2024/01/01 03:17:27;;;;;;;;;;;;;;;;;;5064018;28;19982;-72
2024/01/01 03:19:54;;;;;;;;;;;;;;;;;;5071481;28;19935;-72
2024/01/01 03:22:21;;;;;;;;;;;;;;;;;;5072755;28;20391;-72
2024/01/01 03:24:48;;;;;;;;;;;;;;;;;;5071905;28;19986;-72
2024/01/01 03:27:16;;;;;;;;;;;;;;;;;;5072807;28;19928;-73
2024/01/01 03:29:44;;;;;;;;;;;;;;;;;;5073451;28;20306;-72
2024/01/01 03:32:11;;;;;;;;;;;;;;;;;;5072506;28;20719;-72
2024/01/01 03:34:38;;;;;;;;;;;;;;;;;;5071235;28;19925;-72
2024/01/01 03:37:05;;;;;;;;;;;;;;;;;;5069965;28;19978;-72
2024/01/01 03:39:32;;;;;;;;;;;;;;;;;;5071551;28;20404;-71
2024/01/01 03:41:59;;;;;;;;;;;;;;;;;;5060377;28;20249;-72
2024/01/01 03:44:26;;;;;;;;;;;;;;;;;;5069948;28;19964;-72
2024/01/01 03:46:53;;;;;;;;;;;;;;;;;;5070801;28;19925;-72
2024/01/01 03:49:20;;;;;;;;;;;;;;;;;;5071159;28;19924;-72
2024/01/01 03:51:47;;;;;;;;;;;;;;;;;;5072657;28;19925;-72
2024/01/01 03:54:15;;;;;;;;;;;;;;;;;;5066145;28;20292;-71
2024/01/01 03:56:42;;;;;;;;;;;;;;;;;;5067106;28;19975;-71
2024/01/01 03:59:09;;;;;;;;;;;;;;;;;;5065739;28;19924;-71
2024/01/01 04:01:36;;;;;;;;;;;;;;;;;;5071740;28;19978;-70
2024/01/01 04:04:05;;;;;;;;;;;;;;;;;;5066978;28;19932;-71
2024/01/01 04:06:33;;;;;;;;;;;;;;;;;;5071015;28;19928;-71
2024/01/01 04:09:00;;;;;;;;;;;;;;;;;;5071950;28;19931;-71
2024/01/01 04:11:27;;;;;;;;;;;;;;;;;;5065109;28;19924;-71
2024/01/01 04:13:54;;;;;;;;;;;;;;;;;;5068170;28;19924;-70
2024/01/01 04:16:21;;;;;;;;;;;;;;;;;;5071604;28;19946;-71
2024/01/01 04:18:48;;;;;;;;;;;;;;;;;;5069259;28;19978;-72
2024/01/01 04:21:15;;;;;;;;;;;;;;;;;;5068065;28;19929;-71
2024/01/01 04:23:42;;;;;;;;;;;;;;;;;;5071065;28;19924;-71
2024/01/01 04:26:09;;;;;;;;;;;;;;;;;;5068586;28;20048;-71
2024/01/01 04:28:36;;;;;;;;;;;;;;;;;;5069423;28;19924;-71
2024/01/01 04:31:04;;;;;;;;;;;;;;;;;;5069731;28;20046;-71
2024/01/01 04:33:31;;;;;;;;;;;;;;;;;;5071743;28;19924;-71
2024/01/01 04:35:58;;;;;;;;;;;;;;;;;;5059810;28;19932;-71
2024/01/01 04:38:25;;;;;;;;;;;;;;;;;;5068644;28;19931;-71
2024/01/01 04:40:52;;;;;;;;;;;;;;;;;;5066262;28;20541;-71
2024/01/01 04:43:19;;;;;;;;;;;;;;;;;;5068121;28;19924;-71
2024/01/01 04:45:46;;;;;;;;;;;;;;;;;;5071060;28;19924;-70
2024/01/01 04:48:13;;;;;;;;;;;;;;;;;;5069907;28;19924;-71
2024/01/01 04:50:40;;;;;;;;;;;;;;;;;;5068526;28;19924;-71
2024/01/01 04:53:07;;;;;;;;;;;;;;;;;;5069278;28;20384;-71
2024/01/01 04:55:34;;;;;;;;;;;;;;;;;;5063673;28;20421;-71
2024/01/01 04:58:01;;;;;;;;;;;;;;;;;;5069060;28;20311;-71
2024/01/01 05:00:29;;;;;;;;;;;;;;;;;;5066988;28;19928;-71
2024/01/01 05:02:56;;;;;;;;;;;;;;;;;;5068337;28;20034;-71
2024/01/01 05:05:23;;;;;;;;;;;;;;;;;;5069504;28;19928;-72
2024/01/01 05:07:51;;;;;;;;;;;;;;;;;;5072196;28;19964;-70
2024/01/01 05:10:18;;;;;;;;;;;;;;;;;;5071647;28;19978;-70
2024/01/01 05:12:45;;;;;;;;;;;;;;;;;;5069970;28;19978;-70
2024/01/01 05:15:12;;;;;;;;;;;;;;;;;;5069900;28;19928;-71
2024/01/01 05:17:39;;;;;;;;;;;;;;;;;;5069683;28;19924;-71
2024/01/01 05:20:06;;;;;;;;;;;;;;;;;;5070230;28;19924;-71
2024/01/01 05:22:34;;;;;;;;;;;;;;;;;;5067072;28;19924;-70
2024/01/01 05:25:01;;;;;;;;;;;;;;;;;;5071580;28;19928;-71
2024/01/01 05:27:28;;;;;;;;;;;;;;;;;;5067603;28;19970;-71
2024/01/01 05:29:55;;;;;;;;;;;;;;;;;;5067130;28;19948;-71
2024/01/01 05:32:22;;;;;;;;;;;;;;;;;;5068591;28;19971;-71
2024/01/01 05:34:49;;;;;;;;;;;;;;;;;;5069425;28;20015;-71
2024/01/01 05:37:16;;;;;;;;;;;;;;;;;;5069500;28;20441;-71
2024/01/01 05:39:43;;;;;;;;;;;;;;;;;;5075075;28;19925;-71
2024/01/01 05:42:11;;;;;;;;;;;;;;;;;;5072296;28;20354;-71
2024/01/01 05:44:38;;;;;;;;;;;;;;;;;;5074094;28;19924;-72
2024/01/01 05:47:05;;;;;;;;;;;;;;;;;;5063195;28;19932;-71
2024/01/01 05:49:32;;;;;;;;;;;;;;;;;;5071612;28;19939;-71
2024/01/01 05:51:59;;;;;;;;;;;;;;;;;;5070684;28;19924;-71
2024/01/01 05:54:26;;;;;;;;;;;;;;;;;;5073822;28;19924;-71
2024/01/01 05:56:53;;;;;;;;;;;;;;;;;;5073674;28;20026;-71
2024/01/01 05:59:20;;;;;;;;;;;;;;;;;;5073485;28;19924;-71
2024/01/01 06:01:47;;;;;;;;;;;;;;;;;;5071862;28;19943;-72
2024/01/01 06:04:14;;;;;;;;;;;;;;;;;;5072898;28;19936;-71
2024/01/01 06:06:41;;;;;;;;;;;;;;;;;;5072173;28;19977;-71
2024/01/01 06:09:09;;;;;;;;;;;;;;;;;;5074437;28;19994;-71
2024/01/01 06:11:36;;;;;;;;;;;;;;;;;;5068145;28;20426;-71
2024/01/01 06:14:03;;;;;;;;;;;;;;;;;;5065574;28;19978;-71
2024/01/01 06:16:30;;;;;;;;;;;;;;;;;;5070263;28;19924;-71
2024/01/01 06:18:58;;;;;;;;;;;;;;;;;;5071825;28;19924;-72
2024/01/01 06:21:25;;;;;;;;;;;;;;;;;;5066002;28;19925;-70
2024/01/01 06:23:52;;;;;;;;;;;;;;;;;;5073696;28;19933;-72
2024/01/01 06:26:19;;;;;;;;;;;;;;;;;;5071340;28;19998;-72
2024/01/01 06:28:46;;;;;;;;;;;;;;;;;;5072484;28;19978;-72
2024/01/01 06:31:13;;;;;;;;;;;;;;;;;;5067469;28;20349;-72
2024/01/01 06:33:40;;;;;;;;;;;;;;;;;;5069881;28;19925;-72
2024/01/01 06:36:07;;;;;;;;;;;;;;;;;;5072385;28;19932;-71
2024/01/01 06:38:36;;;;;;;;;;;;;;;;;;5073228;28;20302;-72
2024/01/01 06:41:03;;;;;;;;;;;;;;;;;;5073479;28;19932;-72
2024/01/01 06:43:30;;;;;;;;;;;;;;;;;;5071777;28;20271;-73
2024/01/01 06:45:58;;;;;;;;;;;;;;;;;;5070247;28;19932;-72
2024/01/01 06:48:25;;;;;;;;;;;;;;;;;;5071515;28;20675;-73
2024/01/01 06:50:52;;;;;;;;;;;;;;;;;;5063732;28;19930;-73
2024/01/01 06:53:19;;;;;;;;;;;;;;;;;;5071827;28;20375;-71
2024/01/01 06:55:46;;;;;;;;;;;;;;;;;;5067930;28;19925;-71
2024/01/01 06:58:13;;;;;;;;;;;;;;;;;;5069880;28;19994;-71
2024/01/01 07:00:40;;;;;;;;;;;;;;;;;;5069278;28;19932;-70
2024/01/01 07:03:08;;;;;;;;;;;;;;;;;;5072307;28;20379;-71
2024/01/01 07:05:35;;;;;;;;;;;;;;;;;;5066586;28;20395;-71
2024/01/01 07:08:03;;;;;;;;;;;;;;;;;;5068660;28;20326;-70
2024/01/01 07:10:30;;;;;;;;;;;;;;;;;;5068687;28;20082;-71
2024/01/01 07:12:57;;;;;;;;;;;;;;;;;;5069845;28;20452;-71
2024/01/01 07:15:25;;;;;;;;;;;;;;;;;;5069060;28;20920;-71
2024/01/01 07:17:52;;;;;;;;;;;;;;;;;;5067944;28;19954;-70
2024/01/01 07:20:19;;;;;;;;;;;;;;;;;;5069852;28;20503;-70
2024/01/01 07:22:46;;;;;;;;;;;;;;;;;;5062681;28;19955;-71
2024/01/01 07:25:24;;;;;;;;;;;;;;;;;;5070740;28;19924;-72
2024/01/01 07:27:52;;;;;;;;;;;;;;;;;;5066395;28;19943;-69
2024/01/01 07:30:21;;;;;;;;;;;;;;;;;;5070257;28;19931;-72
2024/01/01 07:32:49;;;;;;;;;;;;;;;;;;5070591;28;19940;-72
2024/01/01 07:35:16;;;;;;;;;;;;;;;;;;5068193;28;20333;-69
2024/01/01 07:37:43;;;;;;;;;;;;;;;;;;5066175;28;19924;-70
2024/01/01 07:40:10;;;;;;;;;;;;;;;;;;5070658;28;19975;-71
2024/01/01 07:42:37;;;;;;;;;;;;;;;;;;5068419;28;19975;-71
2024/01/01 07:45:04;;;;;;;;;;;;;;;;;;5070944;28;20315;-70
2024/01/01 07:47:31;;;;;;;;;;;;;;;;;;5072722;28;19968;-71
2024/01/01 07:49:58;;;;;;;;;;;;;;;;;;5067226;28;19971;-70
2024/01/01 07:52:25;;;;;;;;;;;;;;;;;;5070649;28;19970;-70
2024/01/01 07:54:57;;;;;;;;;;;;;;;;;;5070988;28;19947;-71
2024/01/01 07:57:23;;;;;;;;;;;;;;;;;;5069311;28;19928;-70
2024/01/01 07:59:51;;;;;;;;;;;;;;;;;;5070774;28;19932;-70
2024/01/01 08:02:19;;;;;;;;;;;;;;;;;;5069467;28;19928;-70
2024/01/01 08:04:46;;;;;;;;;;;;;;;;;;5072077;28;19978;-70
2024/01/01 08:07:13;;;;;;;;;;;;;;;;;;5064473;28;19924;-70
2024/01/01 08:09:40;;;;;;;;;;;;;;;;;;5071822;28;19978;-70
2024/01/01 08:12:07;;;;;;;;;;;;;;;;;;5070217;28;20291;-70
2024/01/01 08:14:34;;;;;;;;;;;;;;;;;;5068388;28;20348;-70
2024/01/01 08:17:01;;;;;;;;;;;;;;;;;;5065015;28;19983;-70
2024/01/01 08:19:28;;;;;;;;;;;;;;;;;;5052679;28;19924;-69
2024/01/01 08:21:55;;;;;;;;;;;;;;;;;;5070574;28;19932;-70
2024/01/01 08:24:22;;;;;;;;;;;;;;;;;;5071122;28;20002;-69
2024/01/01 08:26:49;;;;;;;;;;;;;;;;;;5070384;28;19929;-70
2024/01/01 08:29:16;;;;;;;;;;;;;;;;;;5058606;28;19936;-70
2024/01/01 08:31:43;;;;;;;;;;;;;;;;;;5067886;28;20288;-70
2024/01/01 08:34:10;;;;;;;;;;;;;;;;;;5064913;28;19932;-72
2024/01/01 08:36:37;;;;;;;;;;;;;;;;;;5065784;28;19925;-73
2024/01/01 08:39:05;;;;;;;;;;;;;;;;;;5066006;28;20010;-72
2024/01/01 08:41:32;;;;;;;;;;;;;;;;;;5069386;28;19925;-71
2024/01/01 08:43:59;;;;;;;;;;;;;;;;;;5064965;28;19979;-71
2024/01/01 08:46:26;;;;;;;;;;;;;;;;;;5069109;28;19970;-71
2024/01/01 08:48:53;;;;;;;;;;;;;;;;;;5062281;28;20295;-72
2024/01/01 08:51:20;;;;;;;;;;;;;;;;;;5069154;28;19925;-73
2024/01/01 08:53:47;;;;;;;;;;;;;;;;;;5062490;28;20421;-72
2024/01/01 08:56:14;;;;;;;;;;;;;;;;;;5069687;28;19924;-73
2024/01/01 08:58:42;;;;;;;;;;;;;;;;;;5068914;28;20397;-73
2024/01/01 09:01:09;;;;;;;;;;;;;;;;;;5067032;28;19932;-73
2024/01/01 09:03:36;;;;;;;;;;;;;;;;;;5068814;28;19928;-72
2024/01/01 09:06:03;;;;;;;;;;;;;;;;;;5066889;28;19933;-72
2024/01/01 09:08:30;;;;;;;;;;;;;;;;;;5061141;28;20363;-74
2024/01/01 09:10:57;;;;;;;;;;;;;;;;;;5070514;28;20023;-72
2024/01/01 09:13:24;;;;;;;;;;;;;;;;;;5064063;28;19924;-72
2024/01/01 09:15:52;;;;;;;;;;;;;;;;;;5071614;28;19932;-73
2024/01/01 09:18:19;;;;;;;;;;;;;;;;;;5070779;28;19924;-73
2024/01/01 09:20:46;;;;;;;;;;;;;;;;;;5069219;28;19925;-73
2024/01/01 09:23:14;;;;;;;;;;;;;;;;;;5069928;28;20484;-71
2024/01/01 09:25:41;;;;;;;;;;;;;;;;;;5065643;28;20338;-73
2024/01/01 09:28:08;;;;;;;;;;;;;;;;;;5070189;28;19925;-73
2024/01/01 09:30:35;;;;;;;;;;;;;;;;;;5069502;28;20436;-73
2024/01/01 09:33:02;;;;;;;;;;;;;;;;;;5064264;28;19925;-72
2024/01/01 09:35:29;;;;;;;;;;;;;;;;;;5070330;28;19997;-73
2024/01/01 09:37:57;;;;;;;;;;;;;;;;;;5070862;28;19929;-73
2024/01/01 09:40:24;;;;;;;;;;;;;;;;;;5068974;28;19929;-72
2024/01/01 09:42:51;;;;;;;;;;;;;;;;;;5070864;28;19977;-72
2024/01/01 09:45:18;;;;;;;;;;;;;;;;;;5067888;28;19995;-72
2024/01/01 09:47:45;;;;;;;;;;;;;;;;;;5062816;28;19924;-72
2024/01/01 09:50:12;;;;;;;;;;;;;;;;;;5065439;28;19959;-72
2024/01/01 09:52:39;;;;;;;;;;;;;;;;;;5062311;28;20735;-73
2024/01/01 09:55:07;;;;;;;;;;;;;;;;;;5063477;28;19928;-73
2024/01/01 09:57:35;;;;;;;;;;;;;;;;;;5067657;28;19925;-72
2024/01/01 10:00:05;;;;;;;;;;;;;;;;;;5070815;28;20002;-72
2024/01/01 10:02:32;;;;;;;;;;;;;;;;;;5067632;28;19932;-72
2024/01/01 10:04:59;;;;;;;;;;;;;;;;;;5060573;28;19951;-73
2024/01/01 10:07:26;;;;;;;;;;;;;;;;;;5065913;28;20379;-73
2024/01/01 10:09:53;;;;;;;;;;;;;;;;;;5067809;28;20010;-74
2024/01/01 10:12:20;;;;;;;;;;;;;;;;;;5068055;28;19985;-73
2024/01/01 10:14:47;;;;;;;;;;;;;;;;;;5066627;28;20376;-73
2024/01/01 10:17:14;;;;;;;;;;;;;;;;;;5067497;28;20636;-73
2024/01/01 10:19:41;;;;;;;;;;;;;;;;;;5068205;28;19928;-74
2024/01/01 10:22:08;;;;;;;;;;;;;;;;;;5066647;28;19972;-73
2024/01/01 10:24:35;;;;;;;;;;;;;;;;;;5069421;28;19925;-74
2024/01/01 10:27:03;;;;;;;;;;;;;;;;;;5068974;28;20010;-73
2024/01/01 10:29:30;;;;;;;;;;;;;;;;;;5065541;28;19958;-73
2024/01/01 10:31:57;;;;;;;;;;;;;;;;;;5066717;28;19928;-73
2024/01/01 10:34:24;;;;;;;;;;;;;;;;;;5069267;28;19975;-75
2024/01/01 10:36:51;;;;;;;;;;;;;;;;;;5069756;28;19925;-75
2024/01/01 10:39:18;;;;;;;;;;;;;;;;;;5067211;28;19975;-76
2024/01/01 10:41:45;;;;;;;;;;;;;;;;;;5063470;28;19932;-74
2024/01/01 10:44:12;;;;;;;;;;;;;;;;;;5072370;28;19924;-75
2024/01/01 10:46:39;;;;;;;;;;;;;;;;;;5071504;28;19971;-74
2024/01/01 10:49:06;;;;;;;;;;;;;;;;;;5068385;28;19968;-75
2024/01/01 10:51:34;;;;;;;;;;;;;;;;;;5065632;28;19929;-74
2024/01/01 10:54:02;;;;;;;;;;;;;;;;;;5067906;28;20386;-74
2024/01/01 10:56:29;;;;;;;;;;;;;;;;;;5062291;28;19964;-75
2024/01/01 10:58:56;;;;;;;;;;;;;;;;;;5064018;28;20359;-74
2024/01/01 11:01:23;;;;;;;;;;;;;;;;;;5063321;28;19972;-74
2024/01/01 11:03:50;;;;;;;;;;;;;;;;;;5070166;28;20402;-74
2024/01/01 11:06:17;;;;;;;;;;;;;;;;;;5064683;28;19928;-74
2024/01/01 11:08:44;;;;;;;;;;;;;;;;;;5063505;28;19924;-75
2024/01/01 11:11:11;;;;;;;;;;;;;;;;;;5056960;28;19971;-74
2024/01/01 11:13:38;;;;;;;;;;;;;;;;;;5068013;28;19986;-74
2024/01/01 11:16:07;;;;;;;;;;;;;;;;;;5067610;28;19979;-75
2024/01/01 11:18:34;;;;;;;;;;;;;;;;;;5068924;28;19948;-74
2024/01/01 11:21:02;;;;;;;;;;;;;;;;;;5060529;28;19929;-75
2024/01/01 11:23:28;;;;;;;;;;;;;;;;;;5064670;28;20386;-74
2024/01/01 11:25:55;;;;;;;;;;;;;;;;;;5066910;28;19925;-73
2024/01/01 11:28:22;;;;;;;;;;;;;;;;;;5070010;28;20432;-71
2024/01/01 11:30:49;;;;;;;;;;;;;;;;;;5070587;28;19933;-74
2024/01/01 11:33:16;;;;;;;;;;;;;;;;;;5071865;28;19924;-73
2024/01/01 11:35:45;;;;;;;;;;;;;;;;;;5071025;28;19928;-73
2024/01/01 11:38:12;;;;;;;;;;;;;;;;;;5064560;28;19925;-72
2024/01/01 11:40:39;;;;;;;;;;;;;;;;;;5066535;28;20345;-74
2024/01/01 11:43:06;;;;;;;;;;;;;;;;;;5065738;28;19971;-73
2024/01/01 11:45:33;;;;;;;;;;;;;;;;;;5068117;28;20009;-72
2024/01/01 11:48:00;;;;;;;;;;;;;;;;;;5063036;28;19925;-73
2024/01/01 11:50:27;;;;;;;;;;;;;;;;;;5069426;28;19928;-68
2024/01/01 11:52:54;;;;;;;;;;;;;;;;;;5069239;28;19924;-68
2024/01/01 11:55:21;;;;;;;;;;;;;;;;;;5072045;28;19956;-68
2024/01/01 11:57:48;;;;;;;;;;;;;;;;;;5062595;28;19978;-68
2024/01/01 12:00:15;;;;;;;;;;;;;;;;;;5062446;28;19967;-67
2024/01/01 12:02:42;;;;;;;;;;;;;;;;;;5062123;28;19924;-68
2024/01/01 12:05:10;;;;;;;;;;;;;;;;;;5070514;28;19936;-68
2024/01/01 12:07:37;;;;;;;;;;;;;;;;;;5069467;28;19925;-68
2024/01/01 12:10:06;;;;;;;;;;;;;;;;;;5068940;28;19932;-68
2024/01/01 12:12:33;;;;;;;;;;;;;;;;;;5060580;28;19967;-68
2024/01/01 12:15:00;;;;;;;;;;;;;;;;;;5061305;28;19978;-68
2024/01/01 12:17:27;;;;;;;;;;;;;;;;;;5063124;28;19928;-68
2024/01/01 12:19:54;;;;;;;;;;;;;;;;;;5064560;28;19998;-68
2024/01/01 12:22:21;;;;;;;;;;;;;;;;;;5059461;28;20011;-69
2024/01/01 12:24:49;;;;;;;;;;;;;;;;;;5068055;28;19997;-70
2024/01/01 12:27:16;;;;;;;;;;;;;;;;;;5063346;28;19932;-72
2024/01/01 12:29:43;;;;;;;;;;;;;;;;;;5064435;28;19959;-70
2024/01/01 12:32:10;;;;;;;;;;;;;;;;;;5065817;28;20387;-68
2024/01/01 12:34:38;;;;;;;;;;;;;;;;;;5065870;28;19924;-69
2024/01/01 12:37:05;;;;;;;;;;;;;;;;;;5069220;28;20386;-69
2024/01/01 12:39:32;;;;;;;;;;;;;;;;;;5066896;28;20448;-69
2024/01/01 12:42:00;;;;;;;;;;;;;;;;;;5066626;28;20028;-70
2024/01/01 12:44:27;;;;;;;;;;;;;;;;;;5062557;28;19932;-70
2024/01/01 12:46:54;;;;;;;;;;;;;;;;;;5054644;28;19925;-69
2024/01/01 12:49:21;;;;;;;;;;;;;;;;;;5065454;28;19928;-70
2024/01/01 12:51:48;;;;;;;;;;;;;;;;;;5065357;28;19956;-69
2024/01/01 12:54:16;;;;;;;;;;;;;;;;;;5068043;28;19924;-70
2024/01/01 12:56:43;;;;;;;;;;;;;;;;;;5070670;28;19925;-69
2024/01/01 12:59:10;;;;;;;;;;;;;;;;;;5065980;28;20410;-70
2024/01/01 13:01:39;;;;;;;;;;;;;;;;;;5061783;28;19932;-68
2024/01/01 13:04:06;;;;;;;;;;;;;;;;;;5062386;28;20276;-68
2024/01/01 13:06:33;;;;;;;;;;;;;;;;;;5067621;28;19936;-69
2024/01/01 13:09:00;;;;;;;;;;;;;;;;;;5062562;28;19999;-69
2024/01/01 13:11:27;;;;;;;;;;;;;;;;;;5057852;28;20406;-68
2024/01/01 13:13:54;;;;;;;;;;;;;;;;;;5060378;28;20580;-68
2024/01/01 13:16:21;;;;;;;;;;;;;;;;;;5059411;28;19924;-68
2024/01/01 13:18:48;;;;;;;;;;;;;;;;;;5064048;28;19928;-68
2024/01/01 13:21:16;;;;;;;;;;;;;;;;;;5069876;28;20410;-68
2024/01/01 13:23:43;;;;;;;;;;;;;;;;;;5064839;28;19931;-69
2024/01/01 13:26:10;;;;;;;;;;;;;;;;;;5052840;28;19941;-70
2024/01/01 13:28:37;;;;;;;;;;;;;;;;;;5061854;28;19925;-69
2024/01/01 13:31:06;;;;;;;;;;;;;;;;;;5060756;28;20176;-69
2024/01/01 13:33:33;;;;;;;;;;;;;;;;;;5064524;28;20026;-67
2024/01/01 13:36:00;;;;;;;;;;;;;;;;;;5063032;28;19936;-68
2024/01/01 13:38:27;;;;;;;;;;;;;;;;;;5060721;28;20073;-68
2024/01/01 13:40:54;;;;;;;;;;;;;;;;;;5064221;28;19931;-68
2024/01/01 13:43:21;;;;;;;;;;;;;;;;;;5061298;28;20027;-68
2024/01/01 13:45:48;;;;;;;;;;;;;;;;;;5061034;28;19928;-68
2024/01/01 13:48:15;;;;;;;;;;;;;;;;;;5064406;28;19970;-67
2024/01/01 13:50:43;;;;;;;;;;;;;;;;;;5063370;28;19932;-68
2024/01/01 13:53:10;;;;;;;;;;;;;;;;;;5067269;28;20338;-69
2024/01/01 13:55:37;;;;;;;;;;;;;;;;;;5063556;28;20457;-68
2024/01/01 13:58:04;;;;;;;;;;;;;;;;;;5066315;28;20395;-68
2024/01/01 14:00:31;;;;;;;;;;;;;;;;;;5064507;28;19928;-68
2024/01/01 14:02:59;;;;;;;;;;;;;;;;;;5066410;28;20037;-69
2024/01/01 14:05:27;;;;;;;;;;;;;;;;;;5066306;28;19924;-69
2024/01/01 14:07:54;;;;;;;;;;;;;;;;;;5071089;28;19952;-69
2024/01/01 14:10:21;;;;;;;;;;;;;;;;;;5066436;28;19971;-69
2024/01/01 14:12:48;;;;;;;;;;;;;;;;;;5066723;28;20141;-71
2024/01/01 14:15:15;;;;;;;;;;;;;;;;;;5068813;28;20326;-69
2024/01/01 14:17:42;;;;;;;;;;;;;;;;;;5063718;28;19932;-69
2024/01/01 14:20:09;;;;;;;;;;;;;;;;;;5063444;28;19993;-69
2024/01/01 14:22:36;;;;;;;;;;;;;;;;;;5064684;28;20354;-69
2024/01/01 14:25:03;;;;;;;;;;;;;;;;;;5059818;28;20445;-69
2024/01/01 14:27:31;;;;;;;;;;;;;;;;;;5064019;28;19932;-69
2024/01/01 14:29:58;;;;;;;;;;;;;;;;;;5069345;28;19925;-69
2024/01/01 14:32:25;;;;;;;;;;;;;;;;;;5071384;28;20336;-70
2024/01/01 14:34:52;;;;;;;;;;;;;;;;;;5066489;28;19925;-70
2024/01/01 14:37:19;;;;;;;;;;;;;;;;;;5070937;28;20472;-71
2024/01/01 14:39:46;;;;;;;;;;;;;;;;;;5062576;28;19990;-73
2024/01/01 14:42:14;;;;;;;;;;;;;;;;;;5074429;28;20383;-71
2024/01/01 14:44:41;;;;;;;;;;;;;;;;;;5074389;28;20341;-71
2024/01/01 14:47:08;;;;;;;;;;;;;;;;;;5074496;28;19994;-71
2024/01/01 14:49:35;;;;;;;;;;;;;;;;;;5072090;28;19925;-72
2024/01/01 14:52:02;;;;;;;;;;;;;;;;;;5073944;28;20303;-72
2024/01/01 14:54:29;;;;;;;;;;;;;;;;;;5073666;28;20379;-71
2024/01/01 14:56:56;;;;;;;;;;;;;;;;;;5073516;28;20034;-71
2024/01/01 14:59:23;;;;;;;;;;;;;;;;;;5073385;28;19964;-71
2024/01/01 15:01:50;;;;;;;;;;;;;;;;;;5072460;28;20472;-71
2024/01/01 15:04:17;;;;;;;;;;;;;;;;;;5073034;28;20035;-72
2024/01/01 15:06:44;;;;;;;;;;;;;;;;;;5071057;28;19939;-72
2024/01/01 15:09:12;;;;;;;;;;;;;;;;;;5071957;28;20070;-72
2024/01/01 15:11:39;;;;;;;;;;;;;;;;;;5073107;28;19928;-72
2024/01/01 15:14:06;;;;;;;;;;;;;;;;;;5072446;28;19985;-72
2024/01/01 15:16:33;;;;;;;;;;;;;;;;;;5073287;28;20035;-71
2024/01/01 15:19:00;;;;;;;;;;;;;;;;;;5073221;28;20259;-71
2024/01/01 15:21:27;;;;;;;;;;;;;;;;;;5071592;28;20445;-70
2024/01/01 15:23:55;;;;;;;;;;;;;;;;;;5071964;28;19994;-72
2024/01/01 15:26:22;;;;;;;;;;;;;;;;;;5073298;28;19951;-72
2024/01/01 15:28:49;;;;;;;;;;;;;;;;;;5072527;28;19971;-72
2024/01/01 15:31:17;;;;;;;;;;;;;;;;;;5073363;28;19981;-71
2024/01/01 15:33:44;;;;;;;;;;;;;;;;;;5067647;28;20031;-72
2024/01/01 15:36:11;;;;;;;;;;;;;;;;;;5069476;28;20030;-72
2024/01/01 15:38:38;;;;;;;;;;;;;;;;;;5066904;28;19925;-71
2024/01/01 15:41:05;;;;;;;;;;;;;;;;;;5071714;28;20562;-72
2024/01/01 15:43:32;;;;;;;;;;;;;;;;;;5066992;28;19968;-72
2024/01/01 15:46:01;;;;;;;;;;;;;;;;;;5061732;28;19944;-72
2024/01/01 15:48:28;;;;;;;;;;;;;;;;;;5070013;28;20423;-73
2024/01/01 15:50:55;;;;;;;;;;;;;;;;;;5072770;28;19924;-72
2024/01/01 15:53:22;;;;;;;;;;;;;;;;;;5072761;28;20437;-72
2024/01/01 15:55:49;;;;;;;;;;;;;;;;;;5072163;28;20419;-72
2024/01/01 15:58:16;;;;;;;;;;;;;;;;;;5069741;28;19970;-72
2024/01/01 16:00:43;;;;;;;;;;;;;;;;;;5063485;28;19970;-72
2024/01/01 16:03:10;;;;;;;;;;;;;;;;;;5072931;28;19961;-72
2024/01/01 16:05:37;;;;;;;;;;;;;;;;;;5071611;28;20348;-72
2024/01/01 16:08:04;;;;;;;;;;;;;;;;;;5071654;28;19947;-73
2024/01/01 16:10:31;;;;;;;;;;;;;;;;;;5071264;28;19933;-72
2024/01/01 16:12:58;;;;;;;;;;;;;;;;;;5072168;28;19931;-73
2024/01/01 16:15:25;;;;;;;;;;;;;;;;;;5070683;28;19960;-72
2024/01/01 16:17:52;;;;;;;;;;;;;;;;;;5072425;28;20349;-73
2024/01/01 16:20:19;;;;;;;;;;;;;;;;;;5066987;28;19982;-72
2024/01/01 16:22:47;;;;;;;;;;;;;;;;;;5066976;28;19924;-72
2024/01/01 16:25:15;;;;;;;;;;;;;;;;;;5062279;28;19928;-72
2024/01/01 16:27:42;;;;;;;;;;;;;;;;;;5063608;28;19956;-72
2024/01/01 16:30:10;;;;;;;;;;;;;;;;;;5069828;28;20027;-72
2024/01/01 16:32:37;;;;;;;;;;;;;;;;;;5071847;28;20009;-72
2024/01/01 16:35:04;;;;;;;;;;;;;;;;;;5069693;28;20383;-72
2024/01/01 16:37:32;;;;;;;;;;;;;;;;;;5063766;28;19925;-72
2024/01/01 16:40:00;;;;;;;;;;;;;;;;;;5066379;28;20363;-70
2024/01/01 16:42:27;;;;;;;;;;;;;;;;;;5057641;28;19933;-72
2024/01/01 16:44:54;;;;;;;;;;;;;;;;;;5056478;28;19928;-71